createdAt,value
2018-09-21T00:00:33.908Z,6.47
2018-09-21T00:03:02.718Z,5.80
2018-09-21T00:05:31.380Z,7.93
2018-09-21T00:08:00.093Z,5.33
2018-09-21T00:10:29.432Z,4.90
2018-09-21T00:12:58.838Z,4.50
2018-09-21T00:15:28.249Z,6.67
2018-09-21T00:17:57.596Z,6.67
2018-09-21T00:20:26.849Z,6.07
2018-09-21T00:22:55.963Z,4.33
2018-09-21T00:25:25.604Z,6.77
2018-09-21T00:27:54.664Z,6.83
2018-09-21T00:30:23.963Z,6.40
2018-09-21T00:32:52.991Z,5.50
2018-09-21T00:35:21.984Z,12.07
2018-09-21T00:37:51.280Z,4.53
2018-09-21T00:40:19.913Z,6.50
2018-09-21T00:42:49.036Z,6.17
2018-09-21T00:45:17.921Z,8.40
2018-09-21T00:47:46.688Z,6.63
2018-09-21T00:50:17.280Z,8.57
2018-09-21T00:52:46.464Z,5.03
2018-09-21T00:55:15.425Z,5.73
2018-09-21T00:57:44.603Z,6.23
2018-09-21T01:00:13.586Z,6.53
2018-09-21T01:02:42.383Z,6.23
2018-09-21T01:05:11.776Z,5.97
2018-09-21T01:07:40.673Z,4.47
2018-09-21T01:10:09.816Z,6.50
2018-09-21T01:12:38.697Z,6.33
2018-09-21T01:15:08.714Z,3.93
2018-09-21T01:17:38.144Z,4.43
2018-09-21T01:20:07.473Z,5.23
2018-09-21T01:22:36.271Z,9.67
2018-09-21T01:25:05.560Z,7.47
2018-09-21T01:27:34.815Z,4.93
2018-09-21T01:30:04.199Z,5.10
2018-09-21T01:32:32.912Z,4.60
2018-09-21T01:35:01.924Z,6.40
2018-09-21T01:37:30.763Z,6.03
2018-09-21T01:39:59.961Z,6.23
2018-09-21T01:42:28.984Z,4.50
2018-09-21T01:44:58.192Z,5.57
2018-09-21T01:47:26.607Z,7.30
2018-09-21T01:49:56.056Z,7.87
2018-09-21T01:52:25.307Z,6.17
2018-09-21T01:54:54.799Z,8.17
2018-09-21T01:57:23.725Z,5.97
2018-09-21T01:59:53.024Z,6.00
2018-09-21T02:02:21.737Z,5.83
2018-09-21T02:04:50.581Z,7.93
2018-09-21T02:07:19.303Z,6.30
2018-09-21T02:09:48.291Z,5.20
2018-09-21T02:12:17.180Z,7.27
2018-09-21T02:14:46.058Z,6.53
2018-09-21T02:17:15.036Z,6.83
2018-09-21T02:19:43.429Z,4.80
2018-09-21T02:22:12.664Z,4.60
2018-09-21T02:24:42.067Z,4.90
2018-09-21T02:27:11.348Z,8.23
2018-09-21T02:29:39.856Z,4.90
2018-09-21T02:32:08.837Z,4.00
2018-09-21T02:34:37.692Z,10.07
2018-09-21T02:37:06.988Z,5.30
2018-09-21T02:39:36.237Z,6.83
2018-09-21T02:42:05.457Z,3.83
2018-09-21T02:44:34.691Z,10.20
2018-09-21T02:47:03.748Z,7.70
2018-09-21T02:49:33.259Z,6.40
2018-09-21T02:52:02.656Z,6.13
2018-09-21T02:54:31.864Z,5.67
2018-09-21T02:57:00.784Z,6.63
2018-09-21T02:59:29.133Z,6.97
2018-09-21T03:01:58.179Z,7.13
2018-09-21T03:04:27.252Z,7.10
2018-09-21T03:06:55.596Z,3.53
2018-09-21T03:09:24.496Z,4.43
2018-09-21T03:11:53.480Z,5.47
2018-09-21T03:14:22.710Z,5.50
2018-09-21T03:16:51.411Z,4.00
2018-09-21T03:19:20.624Z,4.60
2018-09-21T03:21:49.696Z,3.07
2018-09-21T03:24:18.749Z,5.93
2018-09-21T03:26:47.440Z,7.07
2018-09-21T03:29:16.490Z,7.47
2018-09-21T03:31:45.324Z,8.57
2018-09-21T03:34:15.100Z,5.43
2018-09-21T03:36:44.029Z,5.03
2018-09-21T03:39:12.509Z,5.17
2018-09-21T03:41:41.912Z,7.13
2018-09-21T03:44:10.664Z,2.70
2018-09-21T03:46:40.037Z,4.80
2018-09-21T03:49:09.125Z,3.63
2018-09-21T03:51:38.110Z,3.13
2018-09-21T03:54:06.724Z,4.00
2018-09-21T03:56:36.104Z,3.37
2018-09-21T03:59:05.216Z,3.27
2018-09-21T04:01:34.189Z,1.83
2018-09-21T04:04:02.937Z,6.53
2018-09-21T04:06:32.376Z,3.57
2018-09-21T04:09:01.436Z,4.17
2018-09-21T04:11:30.881Z,2.80
2018-09-21T04:13:59.996Z,5.07
2018-09-21T04:16:29.256Z,7.07
2018-09-21T04:18:57.948Z,3.20
2018-09-21T04:21:26.700Z,6.13
2018-09-21T04:23:55.909Z,4.13
2018-09-21T04:26:24.796Z,5.37
2018-09-21T04:28:54.123Z,5.10
2018-09-21T04:31:23.081Z,3.97
2018-09-21T04:33:52.075Z,3.90
2018-09-21T04:36:21.477Z,4.20
2018-09-21T04:38:50.090Z,4.40
2018-09-21T04:41:18.744Z,8.10
2018-09-21T04:43:48.008Z,3.83
2018-09-21T04:46:17.295Z,6.90
2018-09-21T04:48:46.302Z,4.40
2018-09-21T04:51:15.677Z,4.57
2018-09-21T04:53:44.809Z,4.20
2018-09-21T04:56:14.197Z,3.10
2018-09-21T04:58:42.955Z,4.30
2018-09-21T05:01:12.052Z,4.80
2018-09-21T05:03:41.588Z,5.67
2018-09-21T05:06:10.835Z,6.63
2018-09-21T05:08:39.968Z,5.87
2018-09-21T05:11:08.360Z,7.30
2018-09-21T05:13:37.832Z,7.07
2018-09-21T05:16:07.304Z,5.07
2018-09-21T05:18:35.923Z,7.10
2018-09-21T05:21:05.224Z,6.47
2018-09-21T05:23:34.895Z,7.43
2018-09-21T05:26:04.392Z,5.37
2018-09-21T05:28:32.914Z,4.53
2018-09-21T05:31:02.119Z,4.63
2018-09-21T05:33:31.262Z,9.67
2018-09-21T05:36:00.623Z,4.67
2018-09-21T05:38:30.027Z,8.13
2018-09-21T05:40:59.604Z,8.53
2018-09-21T05:43:28.236Z,7.20
2018-09-21T05:45:57.163Z,8.13
2018-09-21T05:48:26.512Z,7.40
2018-09-21T05:50:55.166Z,7.67
2018-09-21T05:53:23.942Z,10.37
2018-09-21T05:55:53.401Z,8.10
2018-09-21T05:58:22.613Z,8.47
2018-09-21T06:00:51.808Z,7.90
2018-09-21T06:03:21.188Z,10.20
2018-09-21T06:05:49.857Z,9.13
2018-09-21T06:08:19.736Z,11.63
2018-09-21T06:10:48.864Z,8.40
2018-09-21T06:13:17.792Z,11.47
2018-09-21T06:15:46.249Z,8.07
2018-09-21T06:18:15.376Z,9.77
2018-09-21T06:20:44.629Z,8.20
2018-09-21T06:23:14.060Z,9.57
2018-09-21T06:25:42.801Z,12.17
2018-09-21T06:28:12.292Z,9.03
2018-09-21T06:30:42.006Z,9.90
2018-09-21T06:33:11.415Z,8.73
2018-09-21T06:35:40.788Z,9.77
2018-09-21T06:38:09.743Z,11.57
2018-09-21T06:40:38.456Z,11.27
2018-09-21T06:43:07.424Z,10.07
2018-09-21T06:45:36.276Z,10.33
2018-09-21T06:48:04.950Z,10.90
2018-09-21T06:50:33.741Z,9.77
2018-09-21T06:53:03.080Z,9.20
2018-09-21T06:55:32.408Z,13.70
2018-09-21T06:58:01.658Z,7.80
2018-09-21T07:00:31.123Z,14.13
2018-09-21T07:03:00.276Z,9.93
2018-09-21T07:05:29.301Z,12.17
2018-09-21T07:07:58.728Z,13.00
2018-09-21T07:10:27.217Z,8.87
2018-09-21T07:12:55.933Z,14.23
2018-09-21T07:15:24.946Z,14.00
2018-09-21T07:17:54.210Z,12.80
2018-09-21T07:20:23.266Z,10.53
2018-09-21T07:22:52.536Z,14.87
2018-09-21T07:25:21.208Z,9.87
2018-09-21T07:27:50.502Z,10.20
2018-09-21T07:30:19.220Z,10.13
2018-09-21T07:32:47.856Z,11.80
2018-09-21T07:35:16.960Z,11.17
2018-09-21T07:37:45.986Z,9.77
2018-09-21T07:40:15.026Z,12.83
2018-09-21T07:42:44.386Z,10.53
2018-09-21T07:45:14.122Z,10.87
2018-09-21T07:47:42.892Z,10.77
2018-09-21T07:50:12.279Z,12.83
2018-09-21T07:52:41.484Z,9.10
2018-09-21T07:55:10.144Z,11.97
2018-09-21T07:57:39.064Z,16.27
2018-09-21T08:00:08.472Z,13.03
2018-09-21T08:02:36.855Z,13.67
2018-09-21T08:05:05.513Z,8.83
2018-09-21T08:07:34.439Z,11.97
2018-09-21T08:10:03.765Z,11.90
2018-09-21T08:12:32.588Z,11.23
2018-09-21T08:15:00.924Z,9.93
2018-09-21T08:17:29.984Z,10.67
2018-09-21T08:19:59.082Z,9.73
2018-09-21T08:22:28.112Z,8.97
2018-09-21T08:24:57.039Z,9.27
2018-09-21T08:27:26.312Z,13.23
2018-09-21T08:29:55.368Z,12.93
2018-09-21T08:32:24.745Z,7.67
2018-09-21T08:34:53.688Z,11.20
2018-09-21T08:37:23.034Z,14.37
2018-09-21T08:39:52.011Z,9.57
2018-09-21T08:42:21.044Z,12.10
2018-09-21T08:44:50.232Z,6.73
2018-09-21T08:47:19.840Z,11.73
2018-09-21T08:49:48.874Z,8.80
2018-09-21T08:52:17.828Z,11.63
2018-09-21T08:54:46.618Z,11.03
2018-09-21T08:57:15.608Z,12.43
2018-09-21T08:59:44.272Z,12.70
2018-09-21T09:02:12.879Z,10.93
2018-09-21T09:04:41.958Z,10.97
2018-09-21T09:07:10.760Z,8.37
2018-09-21T09:09:40.287Z,8.27
2018-09-21T09:12:08.985Z,10.47
2018-09-21T09:14:38.094Z,9.77
2018-09-21T09:17:07.228Z,11.17
2018-09-21T09:19:35.867Z,9.33
2018-09-21T09:22:06.401Z,9.33
2018-09-21T09:24:35.299Z,10.60
2018-09-21T09:27:04.547Z,9.23
2018-09-21T09:29:33.912Z,9.50
2018-09-21T09:32:02.908Z,11.27
2018-09-21T09:34:31.644Z,11.47
2018-09-21T09:37:00.857Z,13.57
2018-09-21T09:39:29.472Z,12.33
2018-09-21T09:41:58.705Z,10.17
2018-09-21T09:44:27.851Z,12.33
2018-09-21T09:46:56.713Z,9.67
2018-09-21T09:49:25.316Z,11.07
2018-09-21T09:51:54.788Z,16.63
2018-09-21T09:54:23.710Z,11.90
2018-09-21T09:56:52.435Z,12.87
2018-09-21T09:59:20.881Z,16.77
2018-09-21T10:01:50.277Z,16.53
2018-09-21T10:04:19.173Z,8.83
2018-09-21T10:06:48.598Z,10.33
2018-09-21T10:09:17.697Z,10.43
2018-09-21T10:11:46.964Z,11.93
2018-09-21T10:14:15.920Z,13.73
2018-09-21T10:16:45.008Z,13.37
2018-09-21T10:19:14.125Z,9.17
2018-09-21T10:21:43.180Z,19.97
2018-09-21T10:24:12.628Z,8.97
2018-09-21T10:26:41.732Z,8.97
2018-09-21T10:29:10.898Z,10.63
2018-09-21T10:31:40.029Z,11.87
2018-09-21T10:34:09.155Z,15.33
2018-09-21T10:36:38.482Z,11.20
2018-09-21T10:39:08.202Z,12.23
2018-09-21T10:41:37.883Z,9.57
2018-09-21T10:44:07.076Z,12.60
2018-09-21T10:46:36.303Z,10.93
2018-09-21T10:49:05.620Z,13.07
2018-09-21T10:51:34.257Z,9.83
2018-09-21T10:54:03.392Z,12.90
2018-09-21T10:56:32.416Z,15.20
2018-09-21T10:59:01.720Z,12.00
2018-09-21T11:01:30.656Z,11.33
2018-09-21T11:03:59.944Z,9.70
2018-09-21T11:06:28.695Z,10.40
2018-09-21T11:08:57.710Z,9.20
2018-09-21T11:11:27.263Z,9.50
2018-09-21T11:13:56.031Z,14.18
2018-09-21T11:16:25.069Z,12.63
2018-09-21T11:18:54.248Z,12.87
2018-09-21T11:21:23.408Z,10.20
2018-09-21T11:23:52.844Z,8.57
2018-09-21T11:26:22.248Z,8.83
2018-09-21T11:28:50.815Z,10.60
2018-09-21T11:31:20.598Z,8.97
2018-09-21T11:33:49.180Z,11.40
2018-09-21T11:36:18.281Z,16.20
2018-09-21T11:38:46.580Z,10.57
2018-09-21T11:41:15.896Z,8.77
2018-09-21T11:43:45.684Z,6.83
2018-09-21T11:46:14.805Z,7.67
2018-09-21T11:48:44.241Z,8.23
2018-09-21T11:51:13.531Z,8.57
2018-09-21T11:53:42.741Z,11.87
2018-09-21T11:56:11.448Z,10.33
2018-09-21T11:58:40.675Z,8.23
2018-09-21T12:01:09.824Z,8.57
2018-09-21T12:03:38.598Z,10.03
2018-09-21T12:06:08.204Z,7.67
2018-09-21T12:08:38.369Z,7.43
2018-09-21T12:11:07.278Z,10.20
2018-09-21T12:13:37.251Z,9.10
2018-09-21T12:16:06.277Z,12.33
2018-09-21T12:18:35.427Z,10.83
2018-09-21T12:21:04.679Z,11.17
2018-09-21T12:23:33.305Z,11.73
2018-09-21T12:26:03.195Z,8.90
2018-09-21T12:28:32.397Z,10.53
2018-09-21T12:31:01.529Z,12.70
2018-09-21T12:33:30.552Z,10.27
2018-09-21T12:35:59.312Z,9.57
2018-09-21T12:38:28.695Z,10.83
2018-09-21T12:40:57.890Z,9.35
2018-09-21T12:43:27.088Z,13.10
2018-09-21T12:45:55.920Z,10.93
2018-09-21T12:48:24.643Z,9.70
2018-09-21T12:50:53.460Z,13.10
2018-09-21T12:53:22.455Z,8.78
2018-09-21T12:55:51.312Z,11.85
2018-09-21T12:58:20.018Z,8.63
2018-09-21T13:00:50.609Z,12.68
2018-09-21T13:03:20.307Z,7.97
2018-09-21T13:05:53.303Z,8.78
2018-09-21T13:08:22.507Z,9.45
2018-09-21T13:10:51.433Z,7.23
2018-09-21T13:13:20.377Z,8.20
2018-09-21T13:15:49.212Z,9.68
2018-09-21T13:18:18.136Z,9.08
2018-09-21T13:20:47.348Z,11.83
2018-09-21T13:23:16.258Z,10.80
2018-09-21T13:25:44.578Z,10.78
2018-09-21T13:28:13.660Z,7.35
2018-09-21T13:30:42.924Z,12.25
2018-09-21T13:33:11.504Z,8.35
2018-09-21T13:35:40.752Z,8.68
2018-09-21T13:38:09.170Z,7.35
2018-09-21T13:40:38.434Z,11.78
2018-09-21T13:43:07.320Z,8.25
2018-09-21T13:45:36.104Z,10.40
2018-09-21T13:48:05.244Z,12.23
2018-09-21T13:50:34.430Z,11.73
2018-09-21T13:53:03.814Z,11.18
2018-09-21T13:55:33.277Z,11.50
2018-09-21T13:58:01.645Z,11.15
2018-09-21T14:00:30.528Z,10.38
2018-09-21T14:02:59.268Z,11.57
2018-09-21T14:05:28.268Z,8.33
2018-09-21T14:07:57.243Z,10.88
2018-09-21T14:10:26.808Z,12.80
2018-09-21T14:12:56.152Z,12.37
2018-09-21T14:15:25.479Z,10.32
2018-09-21T14:17:54.406Z,16.02
2018-09-21T14:20:22.820Z,16.50
2018-09-21T14:22:52.292Z,12.90
2018-09-21T14:25:21.121Z,13.50
2018-09-21T14:27:49.904Z,9.95
2018-09-21T14:30:19.104Z,11.63
2018-09-21T14:32:48.310Z,13.97
2018-09-21T14:35:16.740Z,11.22
2018-09-21T14:37:45.491Z,9.78
2018-09-21T14:40:14.900Z,13.90
2018-09-21T14:42:43.969Z,10.80
2018-09-21T14:45:12.784Z,9.90
2018-09-21T14:47:41.331Z,10.33
2018-09-21T14:50:10.833Z,9.57
2018-09-21T14:52:40.072Z,14.47
2018-09-21T14:55:09.472Z,14.37
2018-09-21T14:57:38.364Z,10.10
2018-09-21T15:00:07.393Z,9.83
2018-09-21T15:02:36.465Z,11.10
2018-09-21T15:05:05.552Z,11.67
2018-09-21T15:07:33.984Z,9.07
2018-09-21T15:10:03.044Z,12.73
2018-09-21T15:12:31.756Z,10.20
2018-09-21T15:15:00.468Z,11.83
2018-09-21T15:17:29.244Z,11.05
2018-09-21T15:19:58.090Z,9.63
2018-09-21T15:22:26.816Z,11.67
2018-09-21T15:24:55.705Z,10.57
2018-09-21T15:27:25.224Z,10.60
2018-09-21T15:29:53.856Z,11.10
2018-09-21T15:32:22.852Z,13.10
2018-09-21T15:34:51.680Z,11.93
2018-09-21T15:37:21.123Z,12.88
2018-09-21T15:39:50.014Z,11.43
2018-09-21T15:42:18.964Z,10.00
2018-09-21T15:44:47.644Z,12.83
2018-09-21T15:47:16.580Z,11.20
2018-09-21T15:49:45.564Z,11.07
2018-09-21T15:52:15.100Z,14.57
2018-09-21T15:54:44.202Z,12.50
2018-09-21T15:57:12.880Z,10.47
2018-09-21T15:59:41.872Z,9.53
2018-09-21T16:02:10.799Z,10.63
2018-09-21T16:04:39.616Z,11.43
2018-09-21T16:07:08.639Z,14.30
2018-09-21T16:09:37.864Z,10.83
2018-09-21T16:12:06.955Z,10.97
2018-09-21T16:14:36.748Z,11.20
2018-09-21T16:17:05.817Z,15.03
2018-09-21T16:19:34.936Z,11.40
2018-09-21T16:22:04.278Z,10.27
2018-09-21T16:24:33.524Z,12.43
2018-09-21T16:27:03.528Z,10.10
2018-09-21T16:29:32.519Z,9.83
2018-09-21T16:32:01.901Z,8.97
2018-09-21T16:34:31.660Z,11.00
2018-09-21T16:37:00.698Z,10.83
2018-09-21T16:39:30.128Z,10.60
2018-09-21T16:41:59.121Z,11.10
2018-09-21T16:44:27.868Z,12.63
2018-09-21T16:46:56.879Z,11.80
2018-09-21T16:49:25.805Z,9.17
2018-09-21T16:51:54.728Z,11.27
2018-09-21T16:54:24.025Z,9.63
2018-09-21T16:56:53.147Z,10.80
2018-09-21T16:59:21.937Z,7.83
2018-09-21T17:01:51.408Z,10.40
2018-09-21T17:04:20.636Z,9.60
2018-09-21T17:06:49.995Z,10.43
2018-09-21T17:09:18.622Z,11.13
2018-09-21T17:11:47.276Z,11.33
2018-09-21T17:14:16.808Z,10.30
2018-09-21T17:16:45.942Z,11.13
2018-09-21T17:19:15.343Z,13.07
2018-09-21T17:21:44.656Z,9.07
2018-09-21T17:24:13.789Z,13.47
2018-09-21T17:26:43.058Z,15.63
2018-09-21T17:29:12.746Z,14.30
2018-09-21T17:31:42.946Z,11.40
2018-09-21T17:34:11.909Z,12.43
2018-09-21T17:36:41.395Z,11.60
2018-09-21T17:39:11.817Z,10.43
2018-09-21T17:41:41.702Z,12.17
2018-09-21T17:44:11.149Z,12.47
2018-09-21T17:46:40.284Z,15.13
2018-09-21T17:49:09.415Z,10.13
2018-09-21T17:51:38.533Z,12.97
2018-09-21T17:54:07.176Z,10.77
2018-09-21T17:56:36.036Z,10.17
2018-09-21T17:59:04.519Z,9.17
2018-09-21T18:01:34.305Z,8.77
2018-09-21T18:04:04.558Z,11.17
2018-09-21T18:06:33.654Z,8.73
2018-09-21T18:09:03.434Z,10.87
2018-09-21T18:11:32.318Z,15.67
2018-09-21T18:14:02.032Z,11.10
2018-09-21T18:16:31.046Z,10.63
2018-09-21T18:19:00.690Z,13.97
2018-09-21T18:21:30.032Z,12.40
2018-09-21T18:23:58.842Z,12.57
2018-09-21T18:26:27.754Z,13.00
2018-09-21T18:28:57.142Z,11.23
2018-09-21T18:31:26.543Z,7.07
2018-09-21T18:33:55.839Z,5.90
2018-09-21T18:36:25.486Z,3.10
2018-09-21T18:38:54.664Z,3.20
2018-09-21T18:41:24.491Z,4.23
2018-09-21T18:43:53.711Z,3.53
2018-09-21T18:46:23.399Z,3.97
2018-09-21T18:48:53.276Z,4.47
2018-09-21T18:51:22.874Z,3.80
2018-09-21T18:53:53.003Z,2.97
2018-09-21T18:56:22.457Z,3.07
2018-09-21T18:58:51.923Z,6.10
2018-09-21T19:01:22.236Z,5.47
2018-09-21T19:03:51.184Z,4.63
2018-09-21T19:06:20.872Z,3.53
2018-09-21T19:08:50.534Z,2.53
2018-09-21T19:11:19.999Z,4.17
2018-09-21T19:13:49.695Z,4.53
2018-09-21T19:16:19.605Z,5.80
2018-09-21T19:18:50.357Z,5.43
2018-09-21T19:21:19.952Z,4.57
2018-09-21T19:23:49.052Z,4.17
2018-09-21T19:26:19.085Z,7.63
2018-09-21T19:28:48.972Z,2.67
2018-09-21T19:31:18.545Z,4.10
2018-09-21T19:33:49.005Z,3.30
2018-09-21T19:36:19.179Z,5.47
2018-09-21T19:38:49.135Z,2.83
2018-09-21T19:41:18.951Z,3.63
2018-09-21T19:43:48.716Z,1.90
2018-09-21T19:46:18.006Z,3.90
2018-09-21T19:48:47.317Z,3.10
2018-09-21T19:51:17.393Z,2.33
2018-09-21T19:53:47.467Z,3.73
2018-09-21T19:56:17.992Z,3.70
2018-09-21T19:58:46.843Z,2.60
2018-09-21T20:01:16.605Z,3.63
2018-09-21T20:03:45.670Z,2.70
2018-09-21T20:06:15.312Z,3.97
2018-09-21T20:08:45.409Z,4.27
2018-09-21T20:11:15.043Z,3.83
2018-09-21T20:13:44.913Z,4.03
2018-09-21T20:16:14.896Z,4.27
2018-09-21T20:18:44.187Z,3.13
2018-09-21T20:21:13.451Z,4.27
2018-09-21T20:23:43.054Z,5.27
2018-09-21T20:26:13.318Z,3.77
2018-09-21T20:28:42.693Z,5.00
2018-09-21T20:31:18.278Z,2.03
2018-09-21T20:33:47.588Z,3.97
2018-09-21T20:36:17.372Z,3.53
2018-09-21T20:38:47.373Z,4.40
2018-09-21T20:41:16.756Z,4.47
2018-09-21T20:43:45.891Z,3.90
2018-09-21T20:46:16.223Z,6.03
2018-09-21T20:48:45.691Z,3.73
2018-09-21T20:51:16.347Z,2.83
2018-09-21T20:53:47.137Z,5.50
2018-09-21T20:56:18.084Z,4.40
2018-09-21T20:58:47.802Z,2.37
2018-09-21T21:01:17.153Z,4.03
2018-09-21T21:03:46.619Z,2.87
2018-09-21T21:06:16.016Z,2.43
2018-09-21T21:08:45.214Z,4.90
2018-09-21T21:11:14.199Z,3.73
2018-09-21T21:13:43.049Z,3.57
2018-09-21T21:16:11.836Z,2.57
2018-09-21T21:18:41.186Z,4.00
2018-09-21T21:21:10.244Z,6.43
2018-09-21T21:23:39.393Z,5.83
2018-09-21T21:26:09.149Z,5.53
2018-09-21T21:28:38.580Z,3.33
2018-09-21T21:31:08.428Z,3.73
2018-09-21T21:33:36.828Z,6.33
2018-09-21T21:36:05.968Z,7.80
2018-09-21T21:38:35.379Z,4.90
2018-09-21T21:41:04.472Z,2.77
2018-09-21T21:43:33.696Z,8.03
2018-09-21T21:46:02.724Z,4.40
2018-09-21T21:48:32.467Z,6.33
2018-09-21T21:51:01.655Z,6.73
2018-09-21T21:53:30.832Z,5.43
2018-09-21T21:55:59.552Z,3.63
2018-09-21T21:58:28.376Z,6.23
2018-09-21T22:01:02.852Z,5.27
2018-09-21T22:03:32.013Z,5.73
2018-09-21T22:06:00.716Z,6.73
2018-09-21T22:08:29.884Z,7.87
2018-09-21T22:10:58.563Z,6.07
2018-09-21T22:13:32.975Z,7.37
2018-09-21T22:16:02.189Z,7.37
2018-09-21T22:18:31.371Z,9.57
2018-09-21T22:21:00.387Z,4.03
2018-09-21T22:23:30.580Z,5.70
2018-09-21T22:25:59.287Z,6.73
2018-09-21T22:28:27.878Z,8.67
2018-09-21T22:30:57.663Z,3.83
2018-09-21T22:33:27.687Z,7.10
2018-09-21T22:35:57.032Z,6.73
2018-09-21T22:38:26.304Z,9.00
2018-09-21T22:40:55.784Z,7.23
2018-09-21T22:43:24.752Z,10.00
2018-09-21T22:45:53.413Z,7.17
2018-09-21T22:48:22.188Z,6.47
2018-09-21T22:50:51.487Z,7.03
2018-09-21T22:53:20.439Z,8.00
2018-09-21T22:55:48.992Z,9.33
2018-09-21T22:58:17.676Z,9.90
2018-09-21T23:00:46.324Z,10.13
2018-09-21T23:03:14.992Z,5.00
2018-09-21T23:05:44.052Z,7.77
2018-09-21T23:08:13.348Z,9.20
2018-09-21T23:10:42.402Z,5.13
2018-09-21T23:13:11.472Z,8.10
2018-09-21T23:15:40.628Z,8.60
2018-09-21T23:18:09.652Z,10.70
2018-09-21T23:20:38.976Z,6.50
2018-09-21T23:23:08.211Z,9.07
2018-09-21T23:25:37.352Z,8.53
2018-09-21T23:28:06.929Z,9.03
2018-09-21T23:30:35.599Z,9.47
2018-09-21T23:33:04.596Z,7.47
2018-09-21T23:35:33.948Z,10.27
2018-09-21T23:38:03.032Z,6.67
2018-09-21T23:40:31.713Z,7.23
2018-09-21T23:43:00.683Z,8.77
2018-09-21T23:45:30.184Z,6.90
2018-09-21T23:47:59.375Z,6.43
2018-09-21T23:50:28.498Z,6.97
2018-09-21T23:52:57.998Z,10.97
2018-09-21T23:55:26.828Z,8.83
2018-09-21T23:57:55.665Z,8.87
